Terminal Aerodrome Forecast
Issued by NWS Sterling, VA

Home | Current Version | Previous Version | Text Only | Print | Product List | Glossary On
Versions: 1 2 3 4 5 6 7 8 9 10 11 12 13 14 15 16 17 18 19 20 21
000
FTUS41 KLWX 241100
TAFMRB
TAF
KMRB 241135Z 2412/2512 35009KT P6SM OVC110
     FM241300 31005KT P6SM BKN100
     FM241400 VRB03KT P6SM BKN060 BKN100
     FM242300 01007KT P6SM SCT040=

USA.gov is the U.S. government's official web portal to all federal, state and local government web resources and services.